THUNDERSTORM

Not for real navigation. The accuracy of this data is not assured See disclaimer for more information



ICAO NAME COUNTRY WIND Kt GUST Kt VIS m TEMP/DEW C BARO METAR
WAAA Ujung Pandang / Hasanuddin Indonesia 15 0 300 25/20 29.83 WAAA 150830Z 02015KT 340V060 0300 R03/P2000D R21/0550N TSRA FEW018CB BKN019 25/20 Q1010 TL0840 1500
KMNN MARION MUNICIPAL AIRPORT OH United States 5 0 1600 12/12 29.93 KMNN 150853Z AUTO 22005KT 1 0.75SM BR OVC003 12/12 A2993 RMK AO2 SLP136 T01220122 56015 TS
OIBB Bushehr Civ / Afb Iran 16 0 2500 26/18 30.00 OIBB 150830Z 30016KT 2500 TSRA SCT030CB BKN035 OVC080 26/18 Q1016 A3000
OIBQ 27 0 3000 30/20 30.00 OIBQ 150800Z 33027KT 3000 TS SA FEW030CB FEW040 OVC100 30/20 Q1016
PAYA YAKUTAT AIRPORT AK United States 3 0 3200 12/11 29.80 PAYA 150853Z AUTO 05003KT 2SM -RA BR OVC007 12/11 A2980 RMK AO2 SLP091 P0008 60027 T01170106 4011700

Show more